createdAt,value
2018-07-10T00:07:15.484Z,49.96
2018-07-10T00:11:55.396Z,51.50
2018-07-10T00:14:25.749Z,51.41
2018-07-10T00:16:56.184Z,51.22
2018-07-10T00:19:26.580Z,51.71
2018-07-10T00:21:56.993Z,51.29
2018-07-10T00:24:27.659Z,52.07
2018-07-10T00:26:58.453Z,51.81
2018-07-10T00:29:28.853Z,51.42
2018-07-10T00:31:59.654Z,52.55
2018-07-10T00:34:30.074Z,52.54
2018-07-10T00:37:00.512Z,52.94
2018-07-10T00:39:31.192Z,54.20
2018-07-10T00:42:01.880Z,53.58
2018-07-10T00:44:32.596Z,52.21
2018-07-10T00:47:02.638Z,51.50
2018-07-10T00:49:33.093Z,50.97
2018-07-10T00:52:03.508Z,49.37
2018-07-10T00:54:33.922Z,50.10
2018-07-10T00:57:04.416Z,50.04
2018-07-10T00:59:34.924Z,48.94
2018-07-10T01:02:04.766Z,49.17
2018-07-10T01:04:34.618Z,49.16
2018-07-10T01:07:04.439Z,48.88
2018-07-10T01:09:34.236Z,49.40
2018-07-10T01:12:04.466Z,52.27
2018-07-10T01:14:35.160Z,54.52
2018-07-10T01:17:05.586Z,54.54
2018-07-10T01:19:35.484Z,55.18
2018-07-10T01:22:05.378Z,54.30
2018-07-10T01:24:35.588Z,54.68
2018-07-10T01:27:06.036Z,54.57
2018-07-10T01:29:41.386Z,51.36
2018-07-10T01:32:11.394Z,50.88
2018-07-10T01:34:41.175Z,51.52
2018-07-10T01:37:11.108Z,53.77
2018-07-10T01:39:41.458Z,54.85
2018-07-10T01:42:11.366Z,54.74
2018-07-10T01:44:41.495Z,55.83
2018-07-10T01:47:11.935Z,55.77
2018-07-10T01:49:42.384Z,56.52
2018-07-10T01:52:13.068Z,55.99
2018-07-10T01:54:43.593Z,56.08
2018-07-10T01:57:14.031Z,56.38
2018-07-10T01:59:43.888Z,56.06
2018-07-10T02:02:14.280Z,56.57
2018-07-10T02:04:44.687Z,55.65
2018-07-10T02:07:14.570Z,55.93
2018-07-10T02:09:44.782Z,55.43
2018-07-10T02:12:14.591Z,51.54
2018-07-10T02:14:44.522Z,54.71
2018-07-10T02:17:14.758Z,54.98
2018-07-10T02:19:44.694Z,54.40
2018-07-10T02:22:14.590Z,52.27
2018-07-10T02:24:44.491Z,55.93
2018-07-10T02:27:15.238Z,55.31
2018-07-10T02:29:45.190Z,54.81
2018-07-10T02:32:15.603Z,54.17
2018-07-10T02:34:45.532Z,54.42
2018-07-10T02:37:15.418Z,55.50
2018-07-10T02:39:45.280Z,55.46
2018-07-10T02:42:15.198Z,55.96
2018-07-10T02:44:45.616Z,57.30
2018-07-10T02:47:16.122Z,56.87
2018-07-10T02:49:46.025Z,57.01
2018-07-10T02:52:15.936Z,56.89
2018-07-10T02:54:46.770Z,56.09
2018-07-10T02:57:17.479Z,56.19
2018-07-10T02:59:48.060Z,56.52
2018-07-10T03:02:29.621Z,57.08
2018-07-10T03:05:06.587Z,57.94
2018-07-10T03:07:38.683Z,58.38
2018-07-10T03:10:08.853Z,58.55
2018-07-10T03:12:40.478Z,58.60
2018-07-10T03:15:14.857Z,57.99
2018-07-10T03:17:44.751Z,58.27
2018-07-10T03:20:15.256Z,57.61
2018-07-10T03:22:45.124Z,56.03
2018-07-10T03:25:15.043Z,53.90
2018-07-10T03:27:44.955Z,53.20
2018-07-10T03:30:14.767Z,52.40
2018-07-10T03:32:44.711Z,52.76
2018-07-10T03:35:14.551Z,53.29
2018-07-10T03:37:44.541Z,53.34
2018-07-10T03:40:17.734Z,54.52
2018-07-10T03:42:48.227Z,56.23
2018-07-10T03:45:18.157Z,56.60
2018-07-10T03:47:48.431Z,57.39
2018-07-10T03:50:18.374Z,57.85
2018-07-10T03:52:48.578Z,58.53
2018-07-10T03:55:19.593Z,58.16
2018-07-10T03:57:54.678Z,58.07
2018-07-10T04:00:24.963Z,58.30
2018-07-10T04:02:55.263Z,57.84
2018-07-10T04:05:25.079Z,57.55
2018-07-10T04:07:58.972Z,57.20
2018-07-10T04:10:35.675Z,57.30
2018-07-10T04:13:18.211Z,57.61
2018-07-10T04:15:50.681Z,58.65
2018-07-10T04:18:25.977Z,58.79
2018-07-10T04:21:19.862Z,58.78
2018-07-10T04:23:55.729Z,59.20
2018-07-10T04:26:25.861Z,59.10
2018-07-10T04:29:09.105Z,58.50
2018-07-10T04:31:51.503Z,58.70
2018-07-10T04:34:21.767Z,59.05
2018-07-10T04:36:52.600Z,59.11
2018-07-10T04:39:22.663Z,59.11
2018-07-10T04:42:09.536Z,59.48
2018-07-10T04:44:39.383Z,59.55
2018-07-10T04:47:17.447Z,59.54
2018-07-10T04:50:05.521Z,59.63
2018-07-10T04:52:36.711Z,59.98
2018-07-10T04:55:13.669Z,60.15
2018-07-10T04:58:07.526Z,60.75
2018-07-10T05:00:45.831Z,60.35
2018-07-10T05:03:18.506Z,59.49
2018-07-10T05:05:48.876Z,59.56
2018-07-10T05:08:21.905Z,59.61
2018-07-10T05:10:53.857Z,59.56
2018-07-10T05:13:25.087Z,59.58
2018-07-10T05:16:00.259Z,59.48
2018-07-10T05:18:30.749Z,59.62
2018-07-10T05:21:07.839Z,59.83
2018-07-10T05:23:37.705Z,59.30
2018-07-10T05:26:07.668Z,59.71
2018-07-10T05:28:37.557Z,60.89
2018-07-10T05:31:07.901Z,60.46
2018-07-10T05:33:41.209Z,60.58
2018-07-10T05:36:11.533Z,60.85
2018-07-10T05:38:46.523Z,60.11
2018-07-10T05:41:22.347Z,60.23
2018-07-10T05:43:53.906Z,59.76
2018-07-10T05:46:25.208Z,59.33
2018-07-10T05:49:06.844Z,58.68
2018-07-10T05:51:47.744Z,57.72
2018-07-10T05:54:17.879Z,57.89
2018-07-10T05:56:47.784Z,56.78
2018-07-10T05:59:18.306Z,56.03
2018-07-10T06:01:48.844Z,54.50
2018-07-10T06:04:19.562Z,52.28
2018-07-10T06:06:50.018Z,51.19
2018-07-10T06:09:20.394Z,51.04
2018-07-10T06:11:50.813Z,50.42
2018-07-10T06:14:21.141Z,49.68
2018-07-10T06:16:53.118Z,49.03
2018-07-10T06:19:23.475Z,48.61
2018-07-10T06:21:54.181Z,49.39
2018-07-10T06:24:27.478Z,48.40
2018-07-10T06:27:04.234Z,49.04
2018-07-10T06:29:50.012Z,47.63
2018-07-10T06:32:22.492Z,46.91
2018-07-10T06:35:07.912Z,47.91
2018-07-10T06:37:43.120Z,49.52
2018-07-10T06:40:14.500Z,50.14
2018-07-10T06:42:54.298Z,50.76
2018-07-10T06:45:25.166Z,50.94
2018-07-10T06:47:55.890Z,51.68
2018-07-10T06:50:26.638Z,49.89
2018-07-10T06:52:57.241Z,49.86
2018-07-10T06:55:28.056Z,49.08
2018-07-10T06:57:59.663Z,49.10
2018-07-10T07:00:30.360Z,49.66
2018-07-10T07:03:03.374Z,49.88
2018-07-10T07:05:34.171Z,48.58
2018-07-10T07:08:04.673Z,49.61
2018-07-10T07:10:35.209Z,48.05
2018-07-10T07:13:05.668Z,47.22
2018-07-10T07:15:36.030Z,46.65
2018-07-10T07:18:06.478Z,46.18
2018-07-10T07:20:37.370Z,46.56
2018-07-10T07:23:07.792Z,44.94
2018-07-10T07:25:38.314Z,44.59
2018-07-10T07:28:09.060Z,44.90
2018-07-10T07:30:39.396Z,45.54
2018-07-10T07:33:09.816Z,45.05
2018-07-10T07:35:40.184Z,45.85
2018-07-10T07:38:11.226Z,45.94
2018-07-10T07:40:42.266Z,45.75
2018-07-10T07:43:13.085Z,46.06
2018-07-10T07:45:43.450Z,44.79
2018-07-10T07:48:14.480Z,45.31
2018-07-10T07:50:44.956Z,44.72
2018-07-10T07:53:15.377Z,44.36
2018-07-10T07:55:46.336Z,43.89
2018-07-10T07:58:16.809Z,43.64
2018-07-10T08:00:47.248Z,44.28
2018-07-10T08:03:18.002Z,44.21
2018-07-10T08:05:48.440Z,45.01
2018-07-10T08:08:18.852Z,45.85
2018-07-10T08:10:49.289Z,44.27
2018-07-10T08:13:19.888Z,44.68
2018-07-10T08:15:50.546Z,44.36
2018-07-10T08:18:20.966Z,45.25
2018-07-10T08:20:51.520Z,45.35
2018-07-10T08:23:22.716Z,43.94
2018-07-10T08:25:53.824Z,43.65
2018-07-10T08:28:24.358Z,43.79
2018-07-10T08:30:55.648Z,44.38
2018-07-10T08:33:26.217Z,45.39
2018-07-10T08:35:57.226Z,44.23
2018-07-10T08:38:44.912Z,43.47
2018-07-10T08:41:22.564Z,44.78
2018-07-10T08:43:53.550Z,43.30
2018-07-10T08:46:28.287Z,44.45
2018-07-10T08:48:59.756Z,42.63
2018-07-10T08:51:30.262Z,43.40
2018-07-10T08:54:00.307Z,42.43
2018-07-10T08:56:30.728Z,43.12
2018-07-10T08:59:02.060Z,42.36
2018-07-10T09:01:33.346Z,41.59
2018-07-10T09:04:03.790Z,43.23
2018-07-10T09:06:34.217Z,42.40
2018-07-10T09:09:06.056Z,41.66
2018-07-10T09:11:36.474Z,41.59
2018-07-10T09:14:06.953Z,42.08
2018-07-10T09:16:37.770Z,41.55
2018-07-10T09:19:10.483Z,42.27
2018-07-10T09:21:46.146Z,42.71
2018-07-10T09:24:16.529Z,44.15
2018-07-10T09:26:46.946Z,43.06
2018-07-10T09:29:17.471Z,43.30
2018-07-10T09:31:48.251Z,43.60
2018-07-10T09:34:18.634Z,43.67
2018-07-10T09:36:49.437Z,45.00
2018-07-10T09:39:19.838Z,45.40
2018-07-10T09:41:50.259Z,45.72
2018-07-10T09:44:20.810Z,43.77
2018-07-10T09:46:51.392Z,43.21
2018-07-10T09:49:21.827Z,42.72
2018-07-10T09:51:52.514Z,42.72
2018-07-10T09:54:23.289Z,41.47
2018-07-10T09:56:53.890Z,41.17
2018-07-10T09:59:24.341Z,41.41
2018-07-10T10:02:00.806Z,40.78
2018-07-10T10:04:32.169Z,41.05
2018-07-10T10:07:02.589Z,39.96
2018-07-10T10:09:33.068Z,41.53
2018-07-10T10:12:03.827Z,40.70
2018-07-10T10:14:34.207Z,41.40
2018-07-10T10:17:05.241Z,40.52
2018-07-10T10:19:35.703Z,41.76
2018-07-10T10:22:06.513Z,41.34
2018-07-10T10:24:36.998Z,40.20
2018-07-10T10:27:07.365Z,40.91
2018-07-10T10:29:37.765Z,39.91
2018-07-10T10:32:08.293Z,39.93
2018-07-10T10:34:38.759Z,39.67
2018-07-10T10:37:10.093Z,40.62
2018-07-10T10:39:40.540Z,43.43
2018-07-10T10:42:10.977Z,40.69
2018-07-10T10:44:42.326Z,40.01
2018-07-10T10:47:14.753Z,39.69
2018-07-10T10:49:45.710Z,40.27
2018-07-10T10:52:16.649Z,38.73
2018-07-10T10:54:47.261Z,41.01
2018-07-10T10:57:18.399Z,39.68
2018-07-10T10:59:52.474Z,39.95
2018-07-10T11:02:23.471Z,38.33
2018-07-10T11:04:54.150Z,39.27
2018-07-10T11:07:24.629Z,40.40
2018-07-10T11:09:55.089Z,39.66
2018-07-10T11:12:27.527Z,40.44
2018-07-10T11:14:58.438Z,42.42
2018-07-10T11:17:34.671Z,40.38
2018-07-10T11:20:16.305Z,39.71
2018-07-10T11:22:58.815Z,41.34
2018-07-10T11:25:33.905Z,41.39
2018-07-10T11:28:06.139Z,39.77
2018-07-10T11:30:37.325Z,42.57
2018-07-10T11:33:09.326Z,41.07
2018-07-10T11:35:39.847Z,41.22
2018-07-10T11:38:14.181Z,39.29
2018-07-10T11:40:46.902Z,37.92
2018-07-10T11:43:17.651Z,39.07
2018-07-10T11:45:48.111Z,37.74
2018-07-10T11:48:18.692Z,37.85
2018-07-10T11:50:49.173Z,38.76
2018-07-10T11:53:19.615Z,38.45
2018-07-10T11:55:50.083Z,38.56
2018-07-10T11:58:20.590Z,39.08
2018-07-10T12:00:51.051Z,37.29
2018-07-10T12:03:22.067Z,37.38
2018-07-10T12:05:54.429Z,36.65
2018-07-10T12:08:25.201Z,37.57
2018-07-10T12:11:12.971Z,36.82
2018-07-10T12:13:43.955Z,38.45
2018-07-10T12:16:15.128Z,37.07
2018-07-10T12:18:45.638Z,36.70
2018-07-10T12:21:17.988Z,35.64
2018-07-10T12:23:48.872Z,36.25
2018-07-10T12:26:19.640Z,35.24
2018-07-10T12:28:50.134Z,34.67
2018-07-10T12:31:20.715Z,35.21
2018-07-10T12:33:51.141Z,34.99
2018-07-10T12:36:21.724Z,37.51
2018-07-10T12:38:52.199Z,36.23
2018-07-10T12:41:22.671Z,34.76
2018-07-10T12:43:53.855Z,33.87
2018-07-10T12:46:24.374Z,33.54
2018-07-10T12:48:55.052Z,34.86
2018-07-10T12:51:25.991Z,33.63
2018-07-10T12:53:56.528Z,33.90
2018-07-10T12:56:26.970Z,36.91
2018-07-10T12:58:58.338Z,38.88
2018-07-10T13:01:28.866Z,36.24
2018-07-10T13:03:59.666Z,34.44
2018-07-10T13:06:30.140Z,34.98
2018-07-10T13:09:00.624Z,35.63
2018-07-10T13:11:31.083Z,36.22
2018-07-10T13:14:01.518Z,34.71
2018-07-10T13:16:31.960Z,37.24
2018-07-10T13:19:02.454Z,34.78
2018-07-10T13:21:33.022Z,35.79
2018-07-10T13:24:03.739Z,37.00
2018-07-10T13:26:34.198Z,38.91
2018-07-10T13:29:04.599Z,38.17
2018-07-10T13:31:35.368Z,39.38
2018-07-10T13:34:06.135Z,39.26
2018-07-10T13:36:36.611Z,38.95
2018-07-10T13:39:07.701Z,40.03
2018-07-10T13:41:38.530Z,40.21
2018-07-10T13:44:08.970Z,38.57
2018-07-10T13:46:39.422Z,39.03
2018-07-10T13:49:10.068Z,39.78
2018-07-10T13:51:40.762Z,38.80
2018-07-10T13:54:11.860Z,37.16
2018-07-10T13:56:42.652Z,37.63
2018-07-10T13:59:13.111Z,36.21
2018-07-10T14:01:43.894Z,37.68
2018-07-10T14:04:14.305Z,37.33
2018-07-10T14:06:45.155Z,36.57
2018-07-10T14:09:15.533Z,36.52
2018-07-10T14:11:46.011Z,37.32
2018-07-10T14:14:16.463Z,36.21
2018-07-10T14:16:46.915Z,36.57
2018-07-10T14:19:17.360Z,36.89
2018-07-10T14:21:48.113Z,36.05
2018-07-10T14:24:18.742Z,35.61
2018-07-10T14:26:49.265Z,35.58
2018-07-10T14:29:19.745Z,35.62
2018-07-10T14:31:50.212Z,35.10
2018-07-10T14:34:20.667Z,35.62
2018-07-10T14:36:51.100Z,36.10
2018-07-10T14:39:21.521Z,34.48
2018-07-10T14:41:54.832Z,36.30
2018-07-10T14:44:27.070Z,36.73
2018-07-10T14:46:57.835Z,35.01
2018-07-10T14:49:28.315Z,34.18
2018-07-10T14:51:59.092Z,33.54
2018-07-10T14:54:29.576Z,34.19
2018-07-10T14:57:00.148Z,33.54
2018-07-10T14:59:30.618Z,35.72
2018-07-10T15:02:01.057Z,33.16
2018-07-10T15:04:31.532Z,33.85
2018-07-10T15:07:02.331Z,31.90
2018-07-10T15:09:34.760Z,32.07
2018-07-10T15:12:05.529Z,31.46
2018-07-10T15:14:36.101Z,31.90
2018-07-10T15:17:11.676Z,32.17
2018-07-10T15:19:42.110Z,32.53
2018-07-10T15:22:12.494Z,31.99
2018-07-10T15:24:42.924Z,32.77
2018-07-10T15:27:13.498Z,31.20
2018-07-10T15:29:43.898Z,32.37
2018-07-10T15:32:14.395Z,32.63
2018-07-10T15:34:44.848Z,33.62
2018-07-10T15:37:15.322Z,32.61
2018-07-10T15:39:45.991Z,34.38
2018-07-10T15:42:16.469Z,35.96
2018-07-10T15:44:47.551Z,36.21
2018-07-10T15:47:17.943Z,34.19
2018-07-10T15:49:48.843Z,33.14
2018-07-10T15:52:19.454Z,32.90
2018-07-10T15:54:50.399Z,34.54
2018-07-10T15:57:21.284Z,34.98
2018-07-10T15:59:51.704Z,35.69
2018-07-10T16:02:22.119Z,35.13
2018-07-10T16:04:54.352Z,35.28
2018-07-10T16:07:24.843Z,35.68
2018-07-10T16:09:55.351Z,35.48
2018-07-10T16:12:26.108Z,35.54
2018-07-10T16:14:56.546Z,35.94
2018-07-10T16:17:28.472Z,36.05
2018-07-10T16:20:07.682Z,36.96
2018-07-10T16:22:40.927Z,36.09
2018-07-10T16:25:32.823Z,36.02
2018-07-10T16:28:14.082Z,36.52
2018-07-10T16:31:20.049Z,36.46
2018-07-10T16:33:50.644Z,37.22
2018-07-10T16:36:21.586Z,37.07
2018-07-10T16:38:52.056Z,37.27
2018-07-10T16:42:25.364Z,37.16
2018-07-10T16:44:56.283Z,38.16
2018-07-10T16:48:41.290Z,38.20
2018-07-10T16:51:25.746Z,38.36
2018-07-10T16:54:00.942Z,39.06
2018-07-10T16:56:31.541Z,39.28
2018-07-10T16:59:02.216Z,39.39
2018-07-10T17:01:32.734Z,39.99
2018-07-10T17:04:05.252Z,40.28
2018-07-10T17:06:35.828Z,41.29
2018-07-10T17:09:06.578Z,40.64
2018-07-10T17:11:37.062Z,39.41
2018-07-10T17:14:07.466Z,39.97
2018-07-10T17:16:38.094Z,40.38
2018-07-10T17:19:08.529Z,40.66
2018-07-10T17:21:39.575Z,41.00
2018-07-10T17:24:10.294Z,41.23
2018-07-10T17:26:41.173Z,41.43
2018-07-10T17:29:13.290Z,41.61
2018-07-10T17:31:43.959Z,41.45
2018-07-10T17:34:13.970Z,41.45
2018-07-10T17:36:44.415Z,42.23
2018-07-10T17:39:15.084Z,41.96
2018-07-10T17:41:46.878Z,42.31
2018-07-10T17:44:17.316Z,42.32
2018-07-10T17:46:47.789Z,41.73
2018-07-10T17:49:18.268Z,41.19
2018-07-10T17:51:48.771Z,41.47
2018-07-10T17:54:19.254Z,43.07
2018-07-10T17:56:49.739Z,42.95
2018-07-10T17:59:20.414Z,42.96
2018-07-10T18:01:51.522Z,43.52
2018-07-10T18:04:21.918Z,42.83
2018-07-10T18:06:52.358Z,42.50
2018-07-10T18:09:23.143Z,42.63
2018-07-10T18:11:54.720Z,43.11
2018-07-10T18:14:25.198Z,43.81
2018-07-10T18:16:55.676Z,45.70
2018-07-10T18:19:26.072Z,48.38
2018-07-10T18:21:56.983Z,49.96
2018-07-10T18:24:27.682Z,51.27
2018-07-10T18:26:58.436Z,51.84
2018-07-10T18:29:29.266Z,51.64
2018-07-10T18:31:59.611Z,51.92
2018-07-10T18:34:30.637Z,51.30
2018-07-10T18:37:01.481Z,52.15
2018-07-10T18:39:31.992Z,52.73
2018-07-10T18:42:03.883Z,52.48
2018-07-10T18:44:34.635Z,53.22
2018-07-10T18:47:05.282Z,53.37
2018-07-10T18:49:35.182Z,54.73
2018-07-10T18:52:05.913Z,55.02
2018-07-10T18:54:39.353Z,54.91
2018-07-10T18:57:27.403Z,55.53
2018-07-10T19:00:06.734Z,55.36
2018-07-10T19:02:51.609Z,55.62
2018-07-10T19:05:23.273Z,55.85
2018-07-10T19:07:53.372Z,55.47
2018-07-10T19:10:24.124Z,55.79
2018-07-10T19:12:54.053Z,56.16
2018-07-10T19:15:23.982Z,55.24
2018-07-10T19:17:54.338Z,55.42
2018-07-10T19:20:24.308Z,55.31
2018-07-10T19:23:05.481Z,55.58
2018-07-10T19:25:34.960Z,55.39
2018-07-10T19:28:05.245Z,54.99
2018-07-10T19:30:51.475Z,55.82
2018-07-10T19:33:21.863Z,55.40
2018-07-10T19:35:52.211Z,55.28
2018-07-10T19:38:22.466Z,55.99
2018-07-10T19:40:52.778Z,55.72
2018-07-10T19:43:24.899Z,55.94
2018-07-10T19:45:56.007Z,56.13
2018-07-10T19:48:25.943Z,55.86
2018-07-10T19:50:56.659Z,56.22
2018-07-10T19:53:26.887Z,55.95
2018-07-10T19:55:56.743Z,55.58
2018-07-10T19:58:33.653Z,55.90
2018-07-10T20:02:08.731Z,56.08
2018-07-10T20:05:00.801Z,56.12
2018-07-10T20:07:59.613Z,56.52
2018-07-10T20:10:46.807Z,56.28
2018-07-10T20:13:33.681Z,56.43
2018-07-10T20:16:13.462Z,56.02
2018-07-10T20:19:03.237Z,55.92
2018-07-10T20:23:00.030Z,56.19
2018-07-10T20:28:48.728Z,56.20
2018-07-10T20:31:42.015Z,56.41
2018-07-10T20:34:56.318Z,55.45
2018-07-10T20:37:30.224Z,55.69
2018-07-10T20:40:00.449Z,55.41
2018-07-10T20:42:41.613Z,55.27
2018-07-10T20:45:11.990Z,56.21
2018-07-10T20:48:01.016Z,56.81
2018-07-10T20:50:42.518Z,56.78
2018-07-10T20:53:59.382Z,57.67
2018-07-10T20:57:16.645Z,57.16
2018-07-10T20:59:47.587Z,57.29
2018-07-10T21:04:36.470Z,57.57
2018-07-10T21:07:14.612Z,55.85
2018-07-10T21:09:56.930Z,55.23
2018-07-10T21:12:35.904Z,54.92
2018-07-10T21:15:09.457Z,55.15
2018-07-10T21:18:57.444Z,54.57
2018-07-10T21:21:48.673Z,54.47
2018-07-10T21:24:29.356Z,54.14
2018-07-10T21:27:10.624Z,54.02
2018-07-10T21:30:02.086Z,54.42
2018-07-10T21:32:46.044Z,54.03
2018-07-10T21:35:16.159Z,54.44
2018-07-10T21:38:28.509Z,54.08
2018-07-10T21:41:15.957Z,53.21
2018-07-10T21:45:18.058Z,53.59
2018-07-10T21:48:04.926Z,54.08
2018-07-10T21:50:41.570Z,53.89
2018-07-10T21:53:11.486Z,53.85
2018-07-10T21:55:41.414Z,54.43
2018-07-10T21:58:11.615Z,54.37
2018-07-10T22:01:54.566Z,53.96
2018-07-10T22:04:27.619Z,55.00
2018-07-10T22:06:59.804Z,54.23
2018-07-10T22:09:35.062Z,53.74
2018-07-10T22:12:21.498Z,54.23
2018-07-10T22:14:54.496Z,53.96
2018-07-10T22:17:26.703Z,54.06
2018-07-10T22:19:58.034Z,54.52
2018-07-10T22:22:30.859Z,53.63
2018-07-10T22:25:04.549Z,53.52
2018-07-10T22:27:34.445Z,52.80
2018-07-10T22:30:09.351Z,53.09
2018-07-10T22:32:46.415Z,53.17
2018-07-10T22:35:17.243Z,52.67
2018-07-10T22:37:47.131Z,52.48
2018-07-10T22:40:18.779Z,52.38
2018-07-10T22:42:48.745Z,53.11
2018-07-10T22:45:19.979Z,53.25
2018-07-10T22:47:50.741Z,52.88
2018-07-10T22:50:23.865Z,53.02
2018-07-10T22:52:56.341Z,52.72
2018-07-10T22:55:28.713Z,52.71
2018-07-10T22:58:07.360Z,53.08
2018-07-10T23:00:39.408Z,52.37
2018-07-10T23:03:26.382Z,52.61
2018-07-10T23:05:56.619Z,53.06
2018-07-10T23:08:32.642Z,52.72
2018-07-10T23:11:06.652Z,53.36
2018-07-10T23:13:40.698Z,53.35
2018-07-10T23:16:12.284Z,53.46
2018-07-10T23:18:44.483Z,53.39
2018-07-10T23:21:18.222Z,53.38
2018-07-10T23:23:49.090Z,53.88
2018-07-10T23:26:19.902Z,53.74
2018-07-10T23:28:54.180Z,53.69
2018-07-10T23:31:28.670Z,54.01
2018-07-10T23:34:11.241Z,53.81
2018-07-10T23:36:41.180Z,53.79
2018-07-10T23:39:12.154Z,53.91
2018-07-10T23:41:53.306Z,54.69
2018-07-10T23:44:30.816Z,54.78
2018-07-10T23:47:10.484Z,55.65
2018-07-10T23:49:40.904Z,55.66
2018-07-10T23:53:30.132Z,55.76
2018-07-10T23:55:59.991Z,56.54
2018-07-10T23:58:29.918Z,56.17
